Instagram viewer and editor

#هوانوردی

Instagram Photos and Videos
: 🎥 #ببينيم اهمیت بروزرسانی سیستم های ADS-B ناوگان هوایی کشور و توسعه ی پوشش گیرنده های فعال در تشخیص محل هواپیماها در فقدان فعالیت سیستم #رادار . يكى از داده هايى كه پس از #سانحه اخير #پرواز ٣٧٠٤ #هواپیمایی_آسمان به دفعات استفاده و حتى در صدا و سيما نيز به آن اشاره شده، داده هاى آخرين موقعيت پرواز ٣٧٠٤ در وبسايت Flightradar24 است. . اين ويدئو كه به معرفى اهميت اين سيستم مى پردازد، كارى از بخش چندرسانه اى ائرواسپيس تاك است كه در ٤ قسمت در اينستاگرام به اشتراك گذاشته خواهد شد. ▪️براى دريافت اين ويدئو، ميتوانيد به كانال مرجع هوانوردى پارسى (نشانى در بيو) مراجعه نماييد. . @Aerospacetalk 📡تازه‌ترین خبرها از : -ورود هواپیماهای تازه به ناوگان هوایی کشور و شرکتهای هوایی جهان -خبرهای صنعت #هوانوردی و #هوافضا را در #ائرواسپیس_تاک دنبال کنید معتبرترین و موثق ترين کانال #هوانوردی کشور 🇮🇷 لینک کانال تلگرام #مرجع_هوانوردی : 📲 t.me/Aerospacetalk - #سقوط_هواپیما #ep3704 #فلايت_رادار #هوانوردی #اطلاعات_عمومی #مهندسی_مخابرات #هواپیما #پرواز
Advertisement
هواپیما غول پیکر ترابری شرکت بوئینگ #خلبان #پرواز #تامکت#فانتوم#قهرمان#آسمان#بالگرد#هواپیما#جنگنده#هوانوردی#تجهیزات#جنگ#صلح#دفاع#مقدس#فانتوم#تامکت#میگ#سوخو#سانحه#مهندس_تعمیر_نگهداری_هواپیما لطفا صفحه مارو فالو کنید @fly.of.patriot
Advertisement
: 📡 #خبر ♦زمینگیری دو روزه یک فروند هواپیمای #بویینگ #B744 شرکت هواپیمایی #لوفتهانزا در #فرودگاه_امام یک فروند بویینگ #B747_400 شرکت لوفتهانزا به رجیستر D-ABTL از دو روز پیش به علت نقص فنی در فرودگاه امام زمینگیر شده است. شب گذشته یک فروند بویینگ B744 دیگر لوفتهانزا با رجیستر D-ABVR پرواز دیشب این شرکت به #تهران را انجام داد و فرودگاه امام دیشب میزبان دو جامبوی آلمانی بود. این هواپیما حامل قطعات برای تعمیرات جامبوی زمینگیر بوده است. @Aerospacetalk 📡تازه‌ترین خبرها از : -ورود هواپیماهای تازه به ناوگان هوایی کشور و شرکتهای هوایی جهان -خبرهای صنعت #هوانوردی و #هوافضا را در #ائرواسپیس_تاک دنبال کنید معتبرترین و موثق ترين کانال #هوانوردی کشور 🇮🇷 لینک کانال تلگرام #مرجع_هوانوردی : 📲 t.me/Aerospacetalk
Advertisement
علت سانحه هواپیمای ونزوئلا شباهت اين سانحه به پرواز٣٧٠٤ هواپيمايي آسمان/ عبور از ميان كوهها #سانحه_هوایی #هوانوردی #ایرلاین #هواپیما #یاسوج #فرودگاه #سانحه_سمیرم_آسمان #کاکپیت_کرو #کابین_کرو #هواپیمائی #فرودگاهی #اخبار_هوانوردی #ایران_من #سقوط_هواپیما_تهران_یاسوج_اسمان #شبیه_سازی_سانحه_هوائی
: #حادثه یک فروند هواپیمای #ام _دی شرکت Dana Air هنگام فرود از باند خارج شد. هواپیمای #مکدانل_داگلاس MD-83 شرکت Dana Air با رجیستر 5N-SRI پرواز شماره 9J-363 #ابوجا به Port Harcourt #نیجریه با ‌44 مسافر و 6 خدمه پس از فرود در باند ‌21 فرودگاه مقصد در شرایط جوی نامساعد از باند خارج و با عبور از میان آنتنهای localizer، در فاصله‌ی حدود 450 متری از انتهای باند متوقف شد. در طی این حادثه به هیچ یک از سرنشینان آسیبی وارد نشده است و همگی هواپیما را بطور ایمن ترک کرده‌اند. A #DanaAir #McDonnellDouglas #MD83, registration 5N-SRI performig flight 9J-363 from #Abuja to #PortHarcourt (#Nigeria) with 44 passengers and 6 crew, landed on Port Harcourt's runway 21 in poor weather conditions at about 19:10L (18:10Z), overran the end of the #runway, went through the localizer antenna and came to a stop on soft ground about 405 meters/1330 feet past the end of the runway. The aircraft was evacuated, no injuries are being reported, the #aircraft sustained substantial damage however. Related NOTAMs: A0082/18 - ILS/DME IPC 110.3MHZ RWY 21 U/S. 21 FEB 16:30 2018 UNTIL 21 MAY 16:30 2018 ESTIMATED. CREATED: 21 FEB 16:38 2018 A0079/18 NOTAMN Q) DNKK/QMRLC/IV/NBO/A/000/999/0601N00657E005 A) DNPO B) 1802202130 C) 1805202130 EST E) RWY 03/21 CLSD Metars: DNPO 202000Z 16003KT 5000 -TSDZ BKN006 FEW018CB 22/21 Q1007 NOSIG= DNPO 201900Z 24013KT 1500 TSRA BKN006 FEW018CB 22/21 Q1006 NOSIG= DNPO 201700Z 23007KT 9999 TS BKN011 FEW020CB 32/25 Q1005 TEMPO 5000 -TSRA= DNPO 201600Z 25007KT 9999 TS BKN011 FEW020CB 32/24 Q1005 NOSIG= DNPO 201500Z 24007KT 9999 TS BKN012 FEW020CB 33/24 Q1005 TEMPO 5000 -TSRA= DNPO 201400Z 19010KT 9999 BKN013 FEW021CB 33/24 Q1006 TEMPO 5000 -TSRA= DNPO 201300Z 24004KT 9999 BKN013 FEW021CB 33/25 Q1007 TEMPO 5000 -TSRA= @Aerospacetalk 📡تازه‌ترین خبرها از : -ورود هواپیماهای تازه به ناوگان هوایی کشور و شرکتهای هوایی جهان -خبرهای صنعت #هوانوردی و #هوافضا را در #ائرواسپیس_تاک دنبال کنید معتبرترین و موثق ترين کانال #هوانوردی کشور 🇮🇷 لینک کانال تلگرام #مرجع_هوانوردی : 📲 t.me/Aerospacetalk
from Nigeria
🎥فیلم جدیدی ازدرآوردن قطعات هواپیمای تهران_یاسوج از زیربرف دنا و کپسول‌های خالی شده آتش‌نشانی! #سانحه_هوایی #هوانوردی #ایرلاین #هواپیما #یاسوج #فرودگاه #سانحه_سمیرم_آسمان #کاکپیت_کرو #کابین_کرو #هواپیمائی #فرودگاهی #اخبار_هوانوردی #ایران_من #سقوط_هواپیما_تهران_یاسوج_اسمان #سقوط_هواپیما #تیپ_65_نوهد
... ... #هوافضا #جت #جنگنده #هواگرد #هواپیما #مهندسی #مدل #آرسی #خلبان #پرواز #هوانوردی #رادیوکنترل #فرود ✈✈✈✈✈✈✈✈✈✈✈✈✈✈✈✈✈✈✈✈✈✈✈✈✈✈✈✈✈✈ . #aerospace #fighter #aircraft #plane #jet #pilot #fun #sky #fly #rc #radiocontrol #engineering #takeoff #landing ☀☀☀☀☀☀☀☀☀☀☀☀☀☀☀☀☀☀☀☀☀☀☀☀☀☀☀☀
کوسن‌مجموعه دیبا طرح ایفل جنس: کتان هازان قیمت:38,000 تومان قیمت کاور به تنهایی:30,000 تومان #cushion#aviation#decoration #کوسن#دکوراسیون#هوانوردی #ایفل
کوسن‌مجموعه دیبا طرح خلبان جنس: کتان هازان قیمت:38,000 تومان قیمت کاور به تنهایی:30,000 تومان #cushion#aviation#decoration #کوسن#دکوراسیون#هوانوردی#pilot#خلبان
کوسن‌مجموعه دیبا طرح قاصدک جنس: مخمل مبلی قیمت:38,000 تومان قیمت کاور به تنهایی:30,000 تومان #cushion#aviation#decoration #کوسن#دکوراسیون#هوانوردی
کوسن‌مجموعه دیبا طرح آفتابگردان جنس: مخمل مبلی قیمت:38,000 تومان قیمت کاور به تنهایی:30,000 تومان #cushion#aviation#decoration #کوسن#دکوراسیون#هوانوردی#افتابگردان
کوسن‌مجموعه دیبا طرح ماهی جنس: مخمل مبلی قیمت:38,000 تومان قیمت کاور به تنهایی:30,000 تومان #cushion#aviation#decoration #کوسن#دکوراسیون#هوانوردی#fish#عید #نوروز
کوسن‌مجموعه دیبا طرح هواپیما جنس: کتان هازان قیمت:38,000 تومان قیمت کاور به تنهایی:30,000 تومان #cushion#aviation#decoration #کوسن#دکوراسیون#هوانوردی
♦️فیلمی دیده نشده از محل حادثه سقوط هواپیمای مسافربری تهران-یاسوج در ارتفاعات دنا درود بر ارتش قهرمان #خلبان #پرواز #تامکت#فانتوم#قهرمان#آسمان#بالگرد#هواپیما#جنگنده#هوانوردی#تجهیزات#جنگ#صلح#دفاع#مقدس#فانتوم#تامکت#میگ#سوخو#سانحه#مهندس_تعمیر_نگهداری_هواپیما لطفا صفحه مارو فالو کنید @fly.of.patriot
. چند گراف از مواد سازنده پرنده های مختلف #drone#uav#airplane#aerospace#aeronautics#helicopter #هوافضا#هواپیما#هوانوردی#پهپاد#هواپیمای_بدون_سرنشین#ارتش#سپاه#موشک#فضا#فضاپیما#هواپیمای_مدل#هلیکوپتر#خلبانی#فرودگاه#دانستنی#علمی#فناوری#جنگی#جنگنده
مجموعه‌دیبا: تیشرت آستین کوتاه زنانه و مردانه رنگ: سفید و‌مشکی سایزها: M,L,XL, S قیمت: 44,000 تومان وضعیت موجود Photo by @karingharibian #tshirt #aviation #هوانوردی #خلبان #pilot #مهماندار #پرواز
😍😍😍😍😍 #خلبان #پرواز #تامکت#فانتوم#قهرمان#آسمان#بالگرد#هواپیما#جنگنده#هوانوردی#تجهیزات#جنگ#صلح#دفاع#مقدس#فانتوم#تامکت#میگ#سوخو#سانحه#مهندس_تعمیر_نگهداری_هواپیما لطفا صفحه مارو فالو کنید @fly.of.patriot
صحبت های زیبای استاد فن بیان جناب آقای حسینیان. Onlinepilotexam.com اولين مركز آزمون آنلاين خلباني و ديسپچ همراه با نماد اعتماد الكترونيك وصل به درگاه شتاب كشور كليه مقاطع همراه با تايپ هاي مختلف هواپيما تلگرام خبری @irananianpilot #Onlinepilotexam#irananianpilot#pilot#cockpit #airline#online_exam #خلبان #خلبانی #هوانوردی #آزمون_خلبانی #صنعت_هوایی #صنعت_هوانوردی #هواپیما #flightsimulator #آموزش_خلبانی #pilotlife #aviation #aircraft #piloteyes #pilotview #avgeek #aviationgeek  #aviationlovers #instaaviation #aviationphotography
: #Repost @boeing ✈ویدیوی منتشرشده در صفحه بویینگ از سوخترسانی هوایی هواپیمای پگاسوس به یک فروند جنگنده بویینگ F/A-18 سوپر هورنت از سامانه بسکت centerline درطی آزمونهای دریافت گواهینامه صلاحیت پروازی هواپیمای KC-46A همچنین در طی این آزمون، به یک فروند جنگنده F-16 نیز از طریق سامانه بوم سوخترسانی کرد، Fill ‘er up? Contact! Check out the mission flexibility of this Boeing-USAF KC-46. First it refuels an F/A-18 on the centerline drogue system! The tanker also refueled an F-16 on its boom during this certification test flight. Game-changing KC-46 on its way! @Aerospacetalk 📡تازه‌ترین خبرها از : -ورود هواپیماهای تازه به ناوگان هوایی کشور و شرکتهای هوایی جهان -خبرهای صنعت #هوانوردی و #هوافضا را در #ائرواسپیس_تاک دنبال کنید معتبرترین و موثق ترين کانال #هوانوردی کشور 🇮🇷 لینک کانال تلگرام #مرجع_هوانوردی : 📲 t.me/Aerospacetalk #USAF #Boeing #KC46 #AWS18
🌹نرخ پرواز های نوروزی پوکت🌹 هواپیمایی جت آسیا 🛬آژانس مسافرتی آسمان هفتم ☎️۰۲۱ ۸۸ ۵۱۸ ۵۱۹ 🌐www.asemanehaftom.co 🆔️ telegram: seventhskytravelagency آژانس#پرواز#تور#بلیط#سفر#خارجی#هواپیما#هوانوردی#مسافرت#تفریح#بانکوک#ماهان#تای#نرخ_ویژه#آژانس_مسافرتی#گردشگری#جهانگردی#نوروز#نوروزی#دبی#دهلی#استانبول#تایلند#بانکوک#مالزی#کوالالامپور#
Onlinepilotexam.com اولين مركز آزمون آنلاين خلباني و ديسپچ همراه با نماد اعتماد الكترونيك وصل به درگاه شتاب كشور كليه مقاطع همراه با تايپ هاي مختلف هواپيما تلگرام خبری @irananianpilot #Onlinepilotexam#irananianpilot#pilot#cockpit #airline#online_exam #خلبان #خلبانی #هوانوردی #آزمون_خلبانی #صنعت_هوایی #صنعت_هوانوردی #هواپیما #flightsimulator #آموزش_خلبانی #pilotlife #aviation #aircraft #piloteyes #pilotview #avgeek #aviationgeek  #aviationlovers #instaaviation #aviationphotography